KISM/ISM METAR and TAF weather

Enter ICAO airport designator
Station Type Date Time Source
KISM METAR 2020/07/07 07:56 UTC NOAA

KISM 070756Z AUTO 18003KT CLR 24/23 A3005 RMK AO2 SLP176 T02390233 PWINO PNO $


Station Type Date Time Source
KISM Decoded METAR 2020/07/07 07:56 UTC NOAA

Orlando, Kissimmee Municipal Airport, FL, United States (KISM) 28-17-23N 081-26-14W
Jul 07, 2020 - 03:56 AM EDT / 2020.07.07 0756 UTC
Wind: from the S (180 degrees) at 3 MPH (3 KT):0
Sky conditions: clear
Temperature: 75.0 F (23.9 C)
Dew Point: 73.9 F (23.3 C)
Relative Humidity: 96%
Pressure (altimeter): 30.05 in. Hg (1017 hPa)
ob: KISM 070756Z AUTO 18003KT CLR 24/23 A3005 RMK AO2 SLP176 T02390233 PWINO PNO
cycle: 8

Station Type Date Time Source
KISM TAF 2020/07/07 06:42 UTC NOAA

TAF KISM 070539Z 0706/0806 VRB04KT P6SM FEW020 SCT250
FM071500 22005KT P6SM FEW030 SCT250
FM071700 21009KT P6SM VCTS SCT035CB BKN060
TEMPO 0718/0720 VRB15G25KT 2SM TSRA BKN025CB BKN050
FM072200 22007KT P6SM VCSH SCT035 SCT120 BKN250
FM080200 VRB04KT P6SM FEW120 SCT250

Example: see airport list